Time;durP1;ratioP1;P1;durP2;ratioP2;P2;SDS_P1;SDS_P2;PMS_P1;PMS_P2;Temp;Humidity;BMP_temperature;BMP_pressure;BME280_temperature;BME280_humidity;BME280_pressure;Samples;Min_cycle;Max_cycle;Signal;HPM_P1;HPM_P2
2023/04/29 00:04:35;;;;;;;;;;;19.20;63.40;;;;;;10330183;28;877;-71
2023/04/29 00:09:30;;;;;;;;;;;19.20;64.30;;;;;;10329392;28;945;-71
2023/04/29 00:14:25;;;;;;;;;;;19.20;63.40;;;;;;10329845;28;1922;-71
2023/04/29 00:19:21;;;;;;;;;;;19.20;63.50;;;;;;10328992;28;934;-71
2023/04/29 00:24:16;;;;;;;;;;;19.10;63.30;;;;;;10328300;28;1076;-71
2023/04/29 00:29:14;;;;;;;;;;;19.10;63.50;;;;;;10329269;28;821;-71
2023/04/29 00:34:09;;;;;;;;;;;19.20;63.50;;;;;;10328734;28;1968;-70
2023/04/29 00:39:05;;;;;;;;;;;19.10;63.60;;;;;;10328764;28;871;-70
2023/04/29 00:44:00;;;;;;;;;;;19.10;63.60;;;;;;10327814;28;813;-70
2023/04/29 00:48:55;;;;;;;;;;;19.10;63.60;;;;;;10328206;28;964;-70
2023/04/29 00:53:51;;;;;;;;;;;19.10;63.70;;;;;;10328035;28;789;-71
2023/04/29 00:58:49;;;;;;;;;;;19.10;63.60;;;;;;10327316;28;1959;-71
2023/04/29 01:03:44;;;;;;;;;;;19.20;63.70;;;;;;10327059;28;999;-71
2023/04/29 01:08:39;;;;;;;;;;;19.20;63.80;;;;;;10327004;28;963;-71
2023/04/29 01:13:35;;;;;;;;;;;19.10;63.70;;;;;;10327366;28;785;-70
2023/04/29 01:18:30;;;;;;;;;;;19.20;63.80;;;;;;10326501;28;1898;-71
2023/04/29 01:23:25;;;;;;;;;;;19.20;63.90;;;;;;10326395;28;781;-71
2023/04/29 01:28:21;;;;;;;;;;;19.10;63.80;;;;;;10326241;28;956;-71
2023/04/29 01:33:16;;;;;;;;;;;19.10;63.90;;;;;;10326899;28;881;-71
2023/04/29 01:38:12;;;;;;;;;;;19.20;63.90;;;;;;10326596;28;1902;-71
2023/04/29 01:43:10;;;;;;;;;;;19.10;63.90;;;;;;10324915;28;1035;-71
2023/04/29 01:48:06;;;;;;;;;;;19.10;63.80;;;;;;10325698;28;990;-70
2023/04/29 01:53:01;;;;;;;;;;;19.10;64.00;;;;;;10326080;28;973;-71
2023/04/29 01:57:56;;;;;;;;;;;19.10;64.00;;;;;;10325543;28;1893;-71
2023/04/29 02:02:53;;;;;;;;;;;19.10;64.00;;;;;;10326297;28;896;-71
2023/04/29 02:07:48;;;;;;;;;;;19.10;64.10;;;;;;10325241;28;1011;-70
2023/04/29 02:12:45;;;;;;;;;;;19.10;64.00;;;;;;10325155;28;785;-71
2023/04/29 02:17:40;;;;;;;;;;;19.20;64.20;;;;;;10324968;28;1902;-71
2023/04/29 02:22:36;;;;;;;;;;;19.10;64.20;;;;;;10325116;28;825;-71
2023/04/29 02:27:31;;;;;;;;;;;19.10;64.10;;;;;;10325644;28;878;-71
2023/04/29 02:32:26;;;;;;;;;;;19.10;64.30;;;;;;10325431;28;922;-70
2023/04/29 02:37:22;;;;;;;;;;;19.10;64.30;;;;;;10324886;28;1894;-71
2023/04/29 02:42:19;;;;;;;;;;;19.10;64.50;;;;;;10324696;28;864;-71
2023/04/29 02:47:14;;;;;;;;;;;19.10;64.60;;;;;;10324709;28;865;-70
2023/04/29 02:52:09;;;;;;;;;;;19.10;64.60;;;;;;10324530;28;876;-70
2023/04/29 02:57:06;;;;;;;;;;;19.10;64.70;;;;;;10331249;28;1905;-71
2023/04/29 03:02:02;;;;;;;;;;;19.10;64.70;;;;;;10332069;28;1697;-71
2023/04/29 03:06:57;;;;;;;;;;;19.20;64.70;;;;;;10332353;28;956;-71
2023/04/29 03:11:53;;;;;;;;;;;19.10;64.60;;;;;;10331587;28;853;-71
2023/04/29 03:16:48;;;;;;;;;;;19.10;64.70;;;;;;10331345;28;1965;-70
2023/04/29 03:21:44;;;;;;;;;;;19.10;64.70;;;;;;10331161;28;860;-71
2023/04/29 03:26:41;;;;;;;;;;;19.10;64.60;;;;;;10330755;28;882;-71
2023/04/29 03:31:37;;;;;;;;;;;19.10;64.60;;;;;;10330954;28;872;-71
2023/04/29 03:36:32;;;;;;;;;;;19.10;64.80;;;;;;10330619;28;1952;-71
2023/04/29 03:41:27;;;;;;;;;;;19.10;65.50;;;;;;10331323;28;880;-71
2023/04/29 03:46:23;;;;;;;;;;;19.10;65.70;;;;;;10330093;28;1054;-71
2023/04/29 03:51:18;;;;;;;;;;;19.10;65.60;;;;;;10330250;28;894;-70
2023/04/29 03:56:13;;;;;;;;;;;19.10;65.60;;;;;;10330494;28;1878;-71
2023/04/29 04:01:09;;;;;;;;;;;19.10;65.70;;;;;;10331047;28;1330;-71
2023/04/29 04:06:04;;;;;;;;;;;19.10;65.70;;;;;;10329114;28;860;-70
2023/04/29 04:11:02;;;;;;;;;;;19.10;65.70;;;;;;10329347;28;844;-71
2023/04/29 04:15:57;;;;;;;;;;;19.10;65.70;;;;;;10329457;28;1905;-71
2023/04/29 04:20:52;;;;;;;;;;;19.10;65.80;;;;;;10330146;28;916;-71
2023/04/29 04:25:48;;;;;;;;;;;19.10;65.80;;;;;;10328140;28;1035;-71
2023/04/29 04:30:44;;;;;;;;;;;19.10;65.90;;;;;;10328598;28;860;-71
2023/04/29 04:35:40;;;;;;;;;;;19.10;65.80;;;;;;10328262;28;1951;-70
2023/04/29 04:40:35;;;;;;;;;;;19.10;65.80;;;;;;10328068;28;950;-70
2023/04/29 04:45:30;;;;;;;;;;;19.20;65.90;;;;;;10329197;28;876;-71
2023/04/29 04:50:26;;;;;;;;;;;19.10;65.80;;;;;;10328389;28;929;-71
2023/04/29 04:55:21;;;;;;;;;;;19.10;65.80;;;;;;10327059;28;1961;-70
2023/04/29 05:00:17;;;;;;;;;;;19.20;65.90;;;;;;10328019;28;1374;-71
2023/04/29 05:05:12;;;;;;;;;;;19.20;66.00;;;;;;10327789;28;820;-71
2023/04/29 05:10:07;;;;;;;;;;;19.20;66.00;;;;;;10326385;28;881;-71
2023/04/29 05:15:03;;;;;;;;;;;19.20;65.90;;;;;;10326575;28;1906;-71
2023/04/29 05:19:58;;;;;;;;;;;19.20;66.10;;;;;;10326764;28;934;-71
2023/04/29 05:24:59;;;;;;;;;;;19.20;66.10;;;;;;10327057;28;903;-71
2023/04/29 05:29:54;;;;;;;;;;;19.20;66.00;;;;;;10326318;28;801;-71
2023/04/29 05:34:50;;;;;;;;;;;19.20;66.00;;;;;;10326033;28;1902;-70
2023/04/29 05:39:45;;;;;;;;;;;19.20;67.00;;;;;;10326583;28;881;-71
2023/04/29 05:44:40;;;;;;;;;;;19.30;66.30;;;;;;10325974;28;944;-71
2023/04/29 05:49:36;;;;;;;;;;;19.20;66.10;;;;;;10325828;28;949;-70
2023/04/29 05:54:31;;;;;;;;;;;19.20;66.10;;;;;;10326360;28;1969;-71
2023/04/29 05:59:26;;;;;;;;;;;19.20;66.20;;;;;;10325396;28;1302;-71
2023/04/29 06:04:22;;;;;;;;;;;19.20;66.20;;;;;;10325492;28;918;-70
2023/04/29 06:09:17;;;;;;;;;;;19.20;66.20;;;;;;10326076;28;818;-71
2023/04/29 06:14:13;;;;;;;;;;;19.20;66.20;;;;;;10325831;28;1061;-71
2023/04/29 06:19:08;;;;;;;;;;;19.20;66.40;;;;;;10325673;28;1989;-71
2023/04/29 06:24:03;;;;;;;;;;;19.20;66.60;;;;;;10324830;28;963;-71
2023/04/29 06:28:59;;;;;;;;;;;19.10;66.60;;;;;;10328384;28;837;-71
2023/04/29 06:33:54;;;;;;;;;;;19.10;66.70;;;;;;10333781;28;855;-71
2023/04/29 06:38:50;;;;;;;;;;;19.10;66.80;;;;;;10333420;28;1906;-71
2023/04/29 06:43:45;;;;;;;;;;;19.10;66.80;;;;;;10332143;28;885;-65
2023/04/29 06:48:40;;;;;;;;;;;19.10;66.80;;;;;;10332552;28;773;-65
2023/04/29 06:53:36;;;;;;;;;;;19.20;67.10;;;;;;10332363;28;912;-65
2023/04/29 06:58:31;;;;;;;;;;;19.20;67.00;;;;;;10332127;28;1944;-65
2023/04/29 07:03:26;;;;;;;;;;;19.20;66.90;;;;;;10333387;28;896;-65
2023/04/29 07:08:22;;;;;;;;;;;19.20;67.00;;;;;;10331268;28;892;-65
2023/04/29 07:13:17;;;;;;;;;;;19.30;67.10;;;;;;10331024;28;920;-66
2023/04/29 07:18:12;;;;;;;;;;;19.20;67.20;;;;;;10330767;28;1922;-65
2023/04/29 07:23:08;;;;;;;;;;;19.20;67.20;;;;;;10330720;28;907;-66
2023/04/29 07:28:03;;;;;;;;;;;19.20;67.40;;;;;;10331330;28;808;-65
2023/04/29 07:32:59;;;;;;;;;;;19.20;67.30;;;;;;10330826;28;861;-66
2023/04/29 07:37:54;;;;;;;;;;;19.20;67.60;;;;;;10331232;28;1887;-65
2023/04/29 07:42:50;;;;;;;;;;;19.20;67.60;;;;;;10330309;28;779;-71
2023/04/29 07:47:45;;;;;;;;;;;19.20;67.90;;;;;;10330964;28;849;-71
2023/04/29 07:52:41;;;;;;;;;;;19.20;68.00;;;;;;10330634;28;1028;-71
2023/04/29 07:57:36;;;;;;;;;;;19.20;67.80;;;;;;10330311;28;1906;-71
2023/04/29 08:02:32;;;;;;;;;;;19.10;67.70;;;;;;10329703;28;861;-71
2023/04/29 08:07:27;;;;;;;;;;;19.10;67.80;;;;;;10329016;28;970;-71
2023/04/29 08:12:23;;;;;;;;;;;19.20;67.70;;;;;;10329373;28;781;-71
2023/04/29 08:17:18;;;;;;;;;;;19.10;67.70;;;;;;10329976;28;1969;-71
2023/04/29 08:22:13;;;;;;;;;;;19.10;67.70;;;;;;10329005;28;747;-71
2023/04/29 08:27:09;;;;;;;;;;;19.20;67.70;;;;;;10329385;28;754;-70
2023/04/29 08:32:04;;;;;;;;;;;19.10;67.80;;;;;;10328609;28;785;-74
2023/04/29 08:36:59;;;;;;;;;;;19.10;67.90;;;;;;10328257;28;1902;-76
2023/04/29 08:41:56;;;;;;;;;;;19.10;68.10;;;;;;10328781;28;896;-75
2023/04/29 08:46:51;;;;;;;;;;;19.10;68.00;;;;;;10328751;28;854;-76
2023/04/29 08:51:46;;;;;;;;;;;19.10;68.00;;;;;;10327780;28;750;-73
2023/04/29 08:56:42;;;;;;;;;;;19.10;68.00;;;;;;10328117;28;1959;-67
2023/04/29 09:01:37;;;;;;;;;;;19.00;68.10;;;;;;10328268;28;1180;-70
2023/04/29 09:06:32;;;;;;;;;;;19.10;68.40;;;;;;10327289;28;908;-72
2023/04/29 09:11:28;;;;;;;;;;;19.10;69.20;;;;;;10327177;28;900;-73
2023/04/29 09:16:23;;;;;;;;;;;19.10;69.20;;;;;;10326233;28;1973;-73
2023/04/29 09:21:19;;;;;;;;;;;19.10;69.20;;;;;;10326679;28;742;-72
2023/04/29 09:26:14;;;;;;;;;;;19.00;69.10;;;;;;10325940;28;1070;-71
2023/04/29 09:31:10;;;;;;;;;;;19.00;68.90;;;;;;10326303;28;759;-72
2023/04/29 09:36:05;;;;;;;;;;;19.10;68.80;;;;;;10326049;28;1906;-73
2023/04/29 09:41:00;;;;;;;;;;;19.00;68.70;;;;;;10327415;28;809;-66
2023/04/29 09:45:56;;;;;;;;;;;19.00;68.70;;;;;;10326036;28;762;-67
2023/04/29 09:50:51;;;;;;;;;;;19.10;69.60;;;;;;10325186;28;890;-66
2023/04/29 09:55:47;;;;;;;;;;;19.20;70.00;;;;;;10326227;28;1906;-66
2023/04/29 10:00:42;;;;;;;;;;;19.20;70.00;;;;;;10325112;28;1509;-66
2023/04/29 10:05:38;;;;;;;;;;;19.20;70.50;;;;;;10325301;28;809;-66
2023/04/29 10:10:33;;;;;;;;;;;19.20;70.40;;;;;;10325959;28;872;-66
2023/04/29 10:15:29;;;;;;;;;;;19.20;70.40;;;;;;10325245;28;1909;-66
2023/04/29 10:20:24;;;;;;;;;;;19.20;70.60;;;;;;10325223;28;802;-67
2023/04/29 10:25:20;;;;;;;;;;;19.30;70.70;;;;;;10325747;28;797;-66
2023/04/29 10:30:16;;;;;;;;;;;19.30;71.00;;;;;;10325001;28;889;-67
2023/04/29 10:35:13;;;;;;;;;;;19.30;71.00;;;;;;10325152;28;1910;-66
2023/04/29 10:40:09;;;;;;;;;;;19.40;71.10;;;;;;10325356;28;934;-66
2023/04/29 10:45:04;;;;;;;;;;;19.40;71.40;;;;;;10325235;28;889;-67
2023/04/29 10:50:00;;;;;;;;;;;19.40;71.70;;;;;;10324592;28;866;-67
2023/04/29 10:54:55;;;;;;;;;;;19.40;72.10;;;;;;10324477;28;1902;-66
2023/04/29 10:59:50;;;;;;;;;;;19.40;72.40;;;;;;10324947;28;1282;-67
2023/04/29 11:04:46;;;;;;;;;;;19.40;72.60;;;;;;10324872;28;884;-67
2023/04/29 11:09:41;;;;;;;;;;;19.50;73.10;;;;;;10324895;28;866;-67
2023/04/29 11:14:37;;;;;;;;;;;19.50;73.70;;;;;;10326118;28;1985;-67
2023/04/29 11:19:32;;;;;;;;;;;19.50;74.00;;;;;;10331989;28;765;-67
2023/04/29 11:24:27;;;;;;;;;;;19.50;73.70;;;;;;10331266;28;897;-67
2023/04/29 11:29:23;;;;;;;;;;;19.50;73.50;;;;;;10331595;28;853;-67
2023/04/29 11:34:18;;;;;;;;;;;19.50;73.50;;;;;;10330850;28;833;-70
2023/04/29 11:39:14;;;;;;;;;;;19.50;73.50;;;;;;10330015;28;1882;-66
2023/04/29 11:44:09;;;;;;;;;;;19.50;73.40;;;;;;10330509;28;890;-67
2023/04/29 11:49:05;;;;;;;;;;;19.40;73.30;;;;;;10331012;28;844;-67
2023/04/29 11:54:00;;;;;;;;;;;19.40;73.10;;;;;;10330798;28;822;-66
2023/04/29 11:58:55;;;;;;;;;;;19.40;73.20;;;;;;10330686;28;1902;-66
2023/04/29 12:03:51;;;;;;;;;;;19.40;73.30;;;;;;10329758;28;852;-66
2023/04/29 12:08:46;;;;;;;;;;;19.40;73.10;;;;;;10330068;28;853;-66
2023/04/29 12:13:42;;;;;;;;;;;19.40;73.10;;;;;;10329742;28;1712;-67
2023/04/29 12:18:37;;;;;;;;;;;19.50;73.10;;;;;;10329674;28;1989;-67
2023/04/29 12:23:33;;;;;;;;;;;19.40;73.00;;;;;;10329634;28;1044;-67
2023/04/29 12:28:29;;;;;;;;;;;19.40;73.00;;;;;;10328419;28;960;-66
2023/04/29 12:33:25;;;;;;;;;;;19.40;72.90;;;;;;10329122;28;825;-65
2023/04/29 12:38:21;;;;;;;;;;;19.30;77.90;;;;;;10328938;28;1955;-67
2023/04/29 12:43:16;;;;;;;;;;;19.40;78.10;;;;;;10327724;28;794;-67
2023/04/29 12:48:12;;;;;;;;;;;19.40;78.00;;;;;;10328016;28;821;-66
2023/04/29 12:53:08;;;;;;;;;;;19.40;78.10;;;;;;10328437;28;786;-66
2023/04/29 12:58:03;;;;;;;;;;;19.40;78.10;;;;;;10327299;28;1906;-67
2023/04/29 13:03:00;;;;;;;;;;;19.40;78.10;;;;;;10327422;28;821;-66
2023/04/29 13:07:55;;;;;;;;;;;19.40;78.00;;;;;;10328001;28;843;-67
2023/04/29 13:12:51;;;;;;;;;;;19.40;78.20;;;;;;10327482;28;817;-67
2023/04/29 13:17:46;;;;;;;;;;;19.40;78.20;;;;;;10326701;28;1913;-67
2023/04/29 13:22:43;;;;;;;;;;;19.40;78.30;;;;;;10327271;28;794;-67
2023/04/29 13:27:38;;;;;;;;;;;19.30;78.10;;;;;;10326487;28;789;-67
2023/04/29 13:32:33;;;;;;;;;;;19.40;78.10;;;;;;10327044;28;857;-66
2023/04/29 13:37:29;;;;;;;;;;;19.40;78.00;;;;;;10325540;28;1969;-66
2023/04/29 13:42:25;;;;;;;;;;;19.40;78.20;;;;;;10326024;28;848;-66
2023/04/29 13:47:21;;;;;;;;;;;19.40;78.20;;;;;;10325871;28;862;-66
2023/04/29 13:52:16;;;;;;;;;;;19.40;78.30;;;;;;10325797;28;885;-66
2023/04/29 13:57:12;;;;;;;;;;;19.30;78.30;;;;;;10324988;28;1902;-66
2023/04/29 14:02:12;;;;;;;;;;;19.30;78.20;;;;;;10326875;28;1407;-67
2023/04/29 14:07:07;;;;;;;;;;;19.30;78.00;;;;;;10325692;28;822;-67
2023/04/29 14:12:03;;;;;;;;;;;19.40;78.20;;;;;;10325509;28;923;-67
2023/04/29 14:17:00;;;;;;;;;;;19.40;78.30;;;;;;10324632;28;1910;-67
2023/04/29 14:21:55;;;;;;;;;;;19.30;78.20;;;;;;10325126;28;877;-67
2023/04/29 14:26:52;;;;;;;;;;;19.40;78.30;;;;;;10325131;28;774;-66
2023/04/29 14:31:47;;;;;;;;;;;19.30;78.40;;;;;;10324941;28;901;-67
2023/04/29 14:36:42;;;;;;;;;;;19.30;78.40;;;;;;10324955;28;1901;-67
2023/04/29 14:41:38;;;;;;;;;;;19.30;78.50;;;;;;10325493;28;833;-67
2023/04/29 14:46:33;;;;;;;;;;;19.30;78.60;;;;;;10325317;28;881;-66
2023/04/29 14:51:29;;;;;;;;;;;19.30;78.60;;;;;;10330902;28;808;-67
2023/04/29 14:56:26;;;;;;;;;;;19.30;78.50;;;;;;10332239;28;1910;-67
2023/04/29 15:01:21;;;;;;;;;;;19.30;78.60;;;;;;10332185;28;1279;-67
2023/04/29 15:06:17;;;;;;;;;;;19.30;78.60;;;;;;10332029;28;810;-67
2023/04/29 15:11:12;;;;;;;;;;;19.30;78.70;;;;;;10332360;28;862;-66
2023/04/29 15:16:07;;;;;;;;;;;19.30;78.70;;;;;;10332177;28;1977;-66
2023/04/29 15:21:03;;;;;;;;;;;19.30;78.60;;;;;;10331982;28;821;-65
2023/04/29 15:25:58;;;;;;;;;;;19.30;78.50;;;;;;10332330;28;991;-65
2023/04/29 15:30:54;;;;;;;;;;;19.30;78.50;;;;;;10331116;28;933;-66
2023/04/29 15:35:49;;;;;;;;;;;19.30;78.40;;;;;;10330835;28;1910;-66
2023/04/29 15:40:45;;;;;;;;;;;19.30;78.50;;;;;;10330141;28;805;-66
2023/04/29 15:45:41;;;;;;;;;;;19.20;79.20;;;;;;10331045;28;828;-66
2023/04/29 15:50:36;;;;;;;;;;;19.20;78.40;;;;;;10331122;28;769;-71
2023/04/29 15:55:33;;;;;;;;;;;19.20;78.60;;;;;;10330641;28;1906;-71
2023/04/29 16:00:29;;;;;;;;;;;19.20;78.60;;;;;;10329787;28;1213;-71
2023/04/29 16:05:24;;;;;;;;;;;19.20;78.60;;;;;;10330171;28;845;-71
2023/04/29 16:10:20;;;;;;;;;;;19.20;78.50;;;;;;10330169;28;869;-71
2023/04/29 16:15:15;;;;;;;;;;;19.20;78.60;;;;;;10329303;28;1977;-71
2023/04/29 16:20:11;;;;;;;;;;;19.20;78.50;;;;;;10329201;28;874;-71
2023/04/29 16:25:06;;;;;;;;;;;19.20;78.50;;;;;;10328972;28;960;-71
2023/04/29 16:30:02;;;;;;;;;;;19.20;78.50;;;;;;10328893;28;945;-71
2023/04/29 16:34:58;;;;;;;;;;;19.20;78.60;;;;;;10328505;28;1906;-71
2023/04/29 16:39:53;;;;;;;;;;;19.20;78.60;;;;;;10328499;28;843;-71
2023/04/29 16:44:49;;;;;;;;;;;19.20;78.50;;;;;;10328888;28;878;-71
2023/04/29 16:49:44;;;;;;;;;;;19.20;78.50;;;;;;10327939;28;810;-71
2023/04/29 16:54:40;;;;;;;;;;;19.20;78.60;;;;;;10328556;28;1906;-71
2023/04/29 16:59:35;;;;;;;;;;;19.20;78.60;;;;;;10328110;28;1392;-71
2023/04/29 17:04:31;;;;;;;;;;;19.20;78.70;;;;;;10327352;28;1090;-71
2023/04/29 17:09:26;;;;;;;;;;;19.20;78.50;;;;;;10327223;28;798;-71
2023/04/29 17:14:21;;;;;;;;;;;19.20;78.60;;;;;;10326674;28;802;-71
2023/04/29 17:19:17;;;;;;;;;;;19.10;78.50;;;;;;10327277;28;1971;-72
2023/04/29 17:24:12;;;;;;;;;;;19.10;78.60;;;;;;10327427;28;928;-71
2023/04/29 17:29:07;;;;;;;;;;;19.10;78.50;;;;;;10326429;28;749;-72
2023/04/29 17:34:17;;;;;;;;;;;19.10;78.60;;;;;;10326661;28;844;-71
2023/04/29 17:39:12;;;;;;;;;;;19.10;78.60;;;;;;10326392;28;1905;-67
2023/04/29 17:44:08;;;;;;;;;;;19.20;78.70;;;;;;10325973;28;869;-66
2023/04/29 17:49:03;;;;;;;;;;;19.20;78.80;;;;;;10325956;28;791;-66
2023/04/29 17:53:59;;;;;;;;;;;19.20;78.90;;;;;;10325830;28;814;-66
2023/04/29 17:58:54;;;;;;;;;;;19.20;79.10;;;;;;10325116;28;1879;-66
2023/04/29 18:03:50;;;;;;;;;;;19.30;79.10;;;;;;10325467;28;861;-67
2023/04/29 18:08:45;;;;;;;;;;;19.30;79.10;;;;;;10325377;28;1662;-67
2023/04/29 18:13:40;;;;;;;;;;;19.30;79.20;;;;;;10325389;28;912;-67
2023/04/29 18:18:36;;;;;;;;;;;19.30;79.30;;;;;;10325265;28;1910;-66
2023/04/29 18:23:31;;;;;;;;;;;19.30;79.30;;;;;;10326558;28;1049;-67
2023/04/29 18:28:28;;;;;;;;;;;19.30;79.70;;;;;;10333607;28;938;-66
2023/04/29 18:33:25;;;;;;;;;;;19.30;79.70;;;;;;10334309;28;864;-67
2023/04/29 18:38:20;;;;;;;;;;;19.30;79.80;;;;;;10333665;28;2331;-66
2023/04/29 18:43:17;;;;;;;;;;;19.30;79.70;;;;;;10332956;28;867;-66
2023/04/29 18:48:13;;;;;;;;;;;19.30;79.90;;;;;;10333355;28;817;-66
2023/04/29 18:53:09;;;;;;;;;;;19.30;79.90;;;;;;10332636;28;942;-66
2023/04/29 18:58:04;;;;;;;;;;;19.30;80.00;;;;;;10332852;28;1909;-66
2023/04/29 19:02:59;;;;;;;;;;;19.30;80.00;;;;;;10332225;28;814;-66
2023/04/29 19:07:56;;;;;;;;;;;19.40;79.90;;;;;;10332563;28;849;-66
2023/04/29 19:12:51;;;;;;;;;;;19.40;80.00;;;;;;10331754;28;906;-66
2023/04/29 19:17:47;;;;;;;;;;;19.40;79.90;;;;;;10331684;28;1906;-67
2023/04/29 19:22:42;;;;;;;;;;;19.40;80.00;;;;;;10332072;28;778;-66
2023/04/29 19:27:39;;;;;;;;;;;19.30;80.10;;;;;;10331181;28;923;-66
2023/04/29 19:32:35;;;;;;;;;;;19.30;80.20;;;;;;10330957;28;894;-66
2023/04/29 19:37:30;;;;;;;;;;;19.30;80.20;;;;;;10329707;28;1974;-66
2023/04/29 19:42:26;;;;;;;;;;;19.30;80.30;;;;;;10330741;28;809;-66
2023/04/29 19:47:21;;;;;;;;;;;19.30;80.30;;;;;;10331078;28;934;-66
2023/04/29 19:52:16;;;;;;;;;;;19.30;80.50;;;;;;10331578;28;1047;-66
2023/04/29 19:57:12;;;;;;;;;;;19.30;81.40;;;;;;10331331;28;1902;-66
2023/04/29 20:02:07;;;;;;;;;;;19.30;80.60;;;;;;10329799;28;1459;-66
2023/04/29 20:07:02;;;;;;;;;;;19.30;80.60;;;;;;10329846;28;779;-66
2023/04/29 20:11:58;;;;;;;;;;;19.20;80.40;;;;;;10329632;28;765;-66
2023/04/29 20:16:53;;;;;;;;;;;19.20;80.50;;;;;;10329443;28;1913;-66
2023/04/29 20:21:49;;;;;;;;;;;19.20;80.60;;;;;;10328723;28;797;-66
2023/04/29 20:26:45;;;;;;;;;;;19.20;80.50;;;;;;10328961;28;870;-66
2023/04/29 20:31:40;;;;;;;;;;;19.20;80.50;;;;;;10328812;28;838;-67
2023/04/29 20:36:36;;;;;;;;;;;19.20;80.70;;;;;;10329131;28;1961;-66
2023/04/29 20:41:32;;;;;;;;;;;19.10;80.80;;;;;;10329210;28;852;-67
2023/04/29 20:46:27;;;;;;;;;;;19.10;80.90;;;;;;10327931;28;999;-67
2023/04/29 20:51:23;;;;;;;;;;;19.00;80.80;;;;;;10328860;28;767;-66
2023/04/29 20:56:18;;;;;;;;;;;19.10;80.80;;;;;;10327766;28;1955;-66
2023/04/29 21:01:13;;;;;;;;;;;19.00;80.90;;;;;;10328463;28;1097;-66
2023/04/29 21:06:09;;;;;;;;;;;19.00;81.00;;;;;;10327441;28;915;-66
2023/04/29 21:11:06;;;;;;;;;;;19.00;81.10;;;;;;10327747;28;949;-66
2023/04/29 21:16:01;;;;;;;;;;;19.00;81.00;;;;;;10327439;28;1968;-66
2023/04/29 21:20:57;;;;;;;;;;;19.00;81.30;;;;;;10326866;28;844;-66
2023/04/29 21:25:52;;;;;;;;;;;19.00;81.40;;;;;;10326989;28;938;-66
2023/04/29 21:30:48;;;;;;;;;;;19.00;81.70;;;;;;10326432;28;960;-66
2023/04/29 21:35:45;;;;;;;;;;;18.90;82.00;;;;;;10326313;28;1961;-66
2023/04/29 21:40:44;;;;;;;;;;;18.90;82.20;;;;;;10326598;28;790;-67
2023/04/29 21:45:39;;;;;;;;;;;18.90;82.20;;;;;;10326036;28;1517;-66
2023/04/29 21:50:34;;;;;;;;;;;18.90;82.50;;;;;;10325972;28;751;-66
2023/04/29 21:55:30;;;;;;;;;;;18.90;82.60;;;;;;10326899;28;1898;-66
2023/04/29 22:00:32;;;;;;;;;;;18.90;82.90;;;;;;10325737;28;1305;-66
2023/04/29 22:05:27;;;;;;;;;;;18.90;83.00;;;;;;10325626;28;955;-66
2023/04/29 22:10:23;;;;;;;;;;;18.80;83.00;;;;;;10326117;28;814;-66
2023/04/29 22:15:18;;;;;;;;;;;18.80;83.20;;;;;;10325971;28;1906;-66
2023/04/29 22:20:13;;;;;;;;;;;18.80;83.80;;;;;;10325494;28;802;-66
2023/04/29 22:25:09;;;;;;;;;;;18.80;83.80;;;;;;10325804;28;905;-66
2023/04/29 22:30:04;;;;;;;;;;;18.80;83.80;;;;;;10325925;28;868;-66
2023/04/29 22:35:00;;;;;;;;;;;18.80;83.80;;;;;;10324310;28;1902;-66
2023/04/29 22:39:55;;;;;;;;;;;18.80;83.50;;;;;;10324886;28;960;-66
2023/04/29 22:44:51;;;;;;;;;;;18.80;83.70;;;;;;10324881;28;817;-66
2023/04/29 22:49:46;;;;;;;;;;;18.80;83.70;;;;;;10324764;28;818;-66
2023/04/29 22:54:41;;;;;;;;;;;18.80;83.70;;;;;;10324885;28;913;-66
2023/04/29 22:59:37;;;;;;;;;;;18.80;83.70;;;;;;10324503;28;1964;-66
2023/04/29 23:04:32;;;;;;;;;;;18.80;83.60;;;;;;10324442;28;835;-66
2023/04/29 23:09:28;;;;;;;;;;;18.80;83.70;;;;;;10326312;28;871;-66
2023/04/29 23:14:23;;;;;;;;;;;18.80;83.60;;;;;;10331850;28;882;-66
2023/04/29 23:19:18;;;;;;;;;;;18.80;83.60;;;;;;10330999;28;1975;-66
2023/04/29 23:24:14;;;;;;;;;;;18.80;83.70;;;;;;10332006;28;924;-66
2023/04/29 23:29:09;;;;;;;;;;;18.70;83.60;;;;;;10331823;28;932;-66
2023/04/29 23:34:05;;;;;;;;;;;18.80;83.70;;;;;;10331012;28;1607;-66
2023/04/29 23:39:00;;;;;;;;;;;18.80;83.70;;;;;;10331429;28;1909;-66
2023/04/29 23:43:59;;;;;;;;;;;18.80;83.70;;;;;;10330664;28;766;-66
2023/04/29 23:48:55;;;;;;;;;;;18.80;83.60;;;;;;10331051;28;869;-66
2023/04/29 23:53:51;;;;;;;;;;;18.70;83.50;;;;;;10329808;28;910;-66
2023/04/29 23:58:46;;;;;;;;;;;18.70;83.40;;;;;;10330557;28;1914;-66
